createdAt,value
2023-02-19T00:02:02.974Z,4.80
2023-02-19T00:04:29.747Z,4.81
2023-02-19T00:07:04.049Z,4.82
2023-02-19T00:09:34.466Z,4.81
2023-02-19T00:12:01.564Z,4.81
2023-02-19T00:14:28.176Z,4.80
2023-02-19T00:17:04.936Z,4.78
2023-02-19T00:19:34.943Z,4.76
2023-02-19T00:22:07.699Z,4.78
2023-02-19T00:24:37.746Z,4.79
2023-02-19T00:27:05.936Z,4.81
2023-02-19T00:29:33.381Z,4.93
2023-02-19T00:32:06.809Z,4.89
2023-02-19T00:34:33.882Z,4.97
2023-02-19T00:37:03.619Z,4.95
2023-02-19T00:39:35.982Z,4.93
2023-02-19T00:42:02.662Z,4.91
2023-02-19T00:44:29.309Z,4.89
2023-02-19T00:46:56.369Z,4.89
2023-02-19T00:49:27.445Z,4.88
2023-02-19T00:51:54.117Z,4.88
2023-02-19T00:54:22.830Z,4.87
2023-02-19T00:56:50.507Z,4.89
2023-02-19T00:59:17.831Z,4.89
2023-02-19T01:01:50.530Z,4.92
2023-02-19T01:04:26.433Z,4.89
2023-02-19T01:06:59.440Z,4.89
2023-02-19T01:09:29.105Z,4.89
2023-02-19T01:11:56.181Z,4.88
2023-02-19T01:14:26.971Z,4.87
2023-02-19T01:16:56.540Z,4.85
2023-02-19T01:19:25.613Z,4.83
2023-02-19T01:21:52.777Z,4.84
2023-02-19T01:24:25.721Z,4.81
2023-02-19T01:26:58.936Z,4.81
2023-02-19T01:29:26.030Z,4.78
2023-02-19T01:31:53.183Z,4.80
2023-02-19T01:34:29.409Z,4.90
2023-02-19T01:37:00.862Z,4.81
2023-02-19T01:39:30.949Z,4.79
2023-02-19T01:42:01.320Z,4.74
2023-02-19T01:44:27.886Z,4.70
2023-02-19T01:47:01.701Z,4.66
2023-02-19T01:49:48.725Z,4.64
2023-02-19T01:52:36.260Z,4.66
2023-02-19T01:55:07.292Z,4.70
2023-02-19T01:57:41.904Z,4.67
2023-02-19T02:00:15.534Z,4.67
2023-02-19T02:02:54.905Z,4.70
2023-02-19T02:05:43.197Z,4.71
2023-02-19T02:08:29.451Z,4.68
2023-02-19T02:11:09.198Z,4.65
2023-02-19T02:13:41.524Z,4.65
2023-02-19T02:16:25.452Z,4.64
2023-02-19T02:19:25.202Z,4.67
2023-02-19T02:22:22.542Z,4.64
2023-02-19T02:25:29.641Z,4.66
2023-02-19T02:28:12.111Z,4.64
2023-02-19T02:34:20.708Z,4.66
2023-02-19T02:36:51.721Z,4.63
2023-02-19T02:39:27.155Z,4.70
2023-02-19T02:42:22.773Z,4.80
2023-02-19T02:45:14.401Z,4.84
2023-02-19T02:47:53.835Z,4.81
2023-02-19T02:50:30.510Z,4.75
2023-02-19T02:53:26.979Z,4.65
2023-02-19T02:56:00.431Z,4.63
2023-02-19T02:58:36.318Z,4.62
2023-02-19T03:01:27.265Z,4.62
2023-02-19T03:04:06.017Z,4.51
2023-02-19T03:06:36.489Z,4.45
2023-02-19T03:09:14.977Z,4.40
2023-02-19T03:12:05.929Z,4.41
2023-02-19T03:15:22.360Z,4.43
2023-02-19T03:18:14.553Z,4.42
2023-02-19T03:20:46.685Z,4.37
2023-02-19T03:23:16.174Z,4.31
2023-02-19T03:26:03.440Z,4.35
2023-02-19T03:28:57.233Z,4.38
2023-02-19T03:31:30.418Z,4.37
2023-02-19T03:34:03.931Z,4.36
2023-02-19T03:36:38.850Z,4.34
2023-02-19T03:39:08.674Z,4.27
2023-02-19T03:41:44.641Z,4.24
2023-02-19T03:44:39.639Z,4.11
2023-02-19T03:47:29.601Z,3.96
2023-02-19T03:50:02.042Z,3.87
2023-02-19T03:53:06.157Z,3.83
2023-02-19T03:55:46.561Z,3.76
2023-02-19T03:58:21.149Z,3.70
2023-02-19T04:01:09.740Z,3.53
2023-02-19T04:04:20.920Z,3.43
2023-02-19T04:06:57.156Z,3.29
2023-02-19T04:09:27.951Z,3.28
2023-02-19T04:11:58.771Z,3.23
2023-02-19T04:15:10.462Z,3.18
2023-02-19T04:17:51.642Z,3.08
2023-02-19T04:20:21.123Z,3.00
2023-02-19T04:22:49.266Z,2.98
2023-02-19T04:25:23.898Z,2.85
2023-02-19T04:27:51.166Z,2.83
2023-02-19T04:30:35.563Z,2.78
2023-02-19T04:33:09.852Z,2.71
2023-02-19T04:35:41.228Z,2.66
2023-02-19T04:38:11.172Z,2.67
2023-02-19T04:40:42.191Z,2.64
2023-02-19T04:43:19.241Z,2.61
2023-02-19T04:45:45.882Z,2.63
2023-02-19T04:48:15.936Z,2.61
2023-02-19T04:50:42.626Z,2.60
2023-02-19T04:53:09.809Z,2.65
2023-02-19T04:55:38.073Z,2.65
2023-02-19T04:58:11.653Z,2.59
2023-02-19T05:00:48.005Z,2.55
2023-02-19T05:03:17.860Z,2.54
2023-02-19T05:05:47.705Z,2.53
2023-02-19T05:08:14.856Z,2.48
2023-02-19T05:10:42.964Z,2.56
2023-02-19T05:13:12.319Z,2.58
2023-02-19T05:15:43.111Z,2.60
2023-02-19T05:18:10.139Z,2.57
2023-02-19T05:20:37.130Z,2.58
2023-02-19T05:23:10.660Z,2.52
2023-02-19T05:25:40.562Z,2.49
2023-02-19T05:28:19.045Z,2.44
2023-02-19T05:30:50.963Z,2.41
2023-02-19T05:33:20.799Z,2.45
2023-02-19T05:35:50.319Z,2.42
2023-02-19T05:38:22.394Z,2.48
2023-02-19T05:40:58.432Z,2.44
2023-02-19T05:43:27.941Z,2.46
2023-02-19T05:45:59.200Z,2.36
2023-02-19T05:48:29.859Z,2.39
2023-02-19T05:51:05.293Z,2.37
2023-02-19T05:53:35.342Z,2.40
2023-02-19T05:56:04.844Z,2.39
2023-02-19T05:58:35.140Z,2.41
2023-02-19T06:01:16.454Z,2.45
2023-02-19T06:03:43.366Z,2.38
2023-02-19T06:06:18.500Z,2.31
2023-02-19T06:08:45.501Z,2.40
2023-02-19T06:11:18.109Z,2.40
2023-02-19T06:13:51.186Z,2.43
2023-02-19T06:16:29.495Z,2.46
2023-02-19T06:19:04.408Z,2.47
2023-02-19T06:21:35.716Z,2.43
2023-02-19T06:24:09.934Z,2.32
2023-02-19T06:26:39.499Z,2.25
2023-02-19T06:29:06.252Z,2.25
2023-02-19T06:31:33.047Z,2.25
2023-02-19T06:33:59.759Z,2.33
2023-02-19T06:36:26.803Z,2.28
2023-02-19T06:39:00.477Z,2.33
2023-02-19T06:41:30.944Z,2.21
2023-02-19T06:43:58.530Z,2.29
2023-02-19T06:46:31.970Z,2.39
2023-02-19T06:49:08.933Z,2.28
2023-02-19T06:51:42.273Z,2.28
2023-02-19T06:54:08.997Z,2.28
2023-02-19T06:56:47.408Z,2.25
2023-02-19T06:59:22.163Z,2.26
2023-02-19T07:01:51.969Z,2.29
2023-02-19T07:04:22.199Z,2.37
2023-02-19T07:06:49.016Z,2.38
2023-02-19T07:09:15.713Z,2.39
2023-02-19T07:11:42.594Z,2.36
2023-02-19T07:14:15.212Z,2.35
2023-02-19T07:16:43.157Z,2.53
2023-02-19T07:19:10.773Z,2.58
2023-02-19T07:21:42.274Z,2.49
2023-02-19T07:24:10.250Z,2.61
2023-02-19T07:26:42.983Z,2.50
2023-02-19T07:29:09.880Z,2.47
2023-02-19T07:31:36.574Z,2.48
2023-02-19T07:34:03.475Z,2.50
2023-02-19T07:36:30.128Z,2.66
2023-02-19T07:38:58.809Z,2.63
2023-02-19T07:41:26.861Z,2.65
2023-02-19T07:43:54.131Z,2.50
2023-02-19T07:46:20.836Z,2.60
2023-02-19T07:48:47.629Z,2.58
2023-02-19T07:51:19.004Z,2.63
2023-02-19T07:53:46.848Z,2.62
2023-02-19T07:56:13.471Z,2.74
2023-02-19T07:58:40.689Z,2.83
2023-02-19T08:01:40.549Z,2.78
2023-02-19T08:04:07.500Z,2.80
2023-02-19T08:06:34.104Z,2.86
2023-02-19T08:09:08.241Z,2.94
2023-02-19T08:11:56.280Z,3.13
2023-02-19T08:14:27.212Z,3.00
2023-02-19T08:16:54.465Z,3.22
2023-02-19T08:19:21.974Z,3.25
2023-02-19T08:21:48.659Z,3.36
2023-02-19T08:24:15.418Z,3.43
2023-02-19T08:26:45.281Z,3.42
2023-02-19T08:29:21.047Z,3.60
2023-02-19T08:31:47.789Z,3.75
2023-02-19T08:34:14.609Z,3.81
2023-02-19T08:36:41.448Z,3.94
2023-02-19T08:39:08.144Z,4.04
2023-02-19T08:41:38.080Z,3.94
2023-02-19T08:44:04.770Z,3.89
2023-02-19T08:46:33.043Z,4.00
2023-02-19T08:49:00.971Z,3.95
2023-02-19T08:51:27.654Z,4.10
2023-02-19T08:53:54.363Z,4.25
2023-02-19T08:56:21.029Z,4.13
2023-02-19T08:58:47.708Z,4.01
2023-02-19T09:01:18.476Z,3.95
2023-02-19T09:03:45.436Z,4.24
2023-02-19T09:06:20.189Z,4.21
2023-02-19T09:08:47.135Z,4.55
2023-02-19T09:11:14.400Z,4.39
2023-02-19T09:13:41.627Z,4.50
2023-02-19T09:16:08.592Z,4.27
2023-02-19T09:18:35.836Z,4.17
2023-02-19T09:21:05.209Z,4.24
2023-02-19T09:23:36.278Z,4.33
2023-02-19T09:26:06.923Z,4.40
2023-02-19T09:28:33.780Z,4.19
2023-02-19T09:31:12.519Z,4.21
2023-02-19T09:33:47.065Z,4.04
2023-02-19T09:36:15.768Z,4.01
2023-02-19T09:38:42.556Z,4.04
2023-02-19T09:41:18.435Z,4.14
2023-02-19T09:43:45.574Z,4.16
2023-02-19T09:46:38.339Z,4.14
2023-02-19T09:49:11.765Z,4.19
2023-02-19T09:51:40.962Z,4.32
2023-02-19T09:54:32.149Z,4.47
2023-02-19T09:57:02.926Z,4.81
2023-02-19T09:59:40.357Z,4.78
2023-02-19T10:02:24.530Z,4.72
2023-02-19T10:04:52.720Z,4.77
2023-02-19T10:07:26.395Z,4.44
2023-02-19T10:09:57.715Z,4.66
2023-02-19T10:12:30.207Z,4.79
2023-02-19T10:15:23.337Z,5.29
2023-02-19T10:17:50.040Z,5.05
2023-02-19T10:20:26.714Z,4.94
2023-02-19T10:23:08.768Z,5.05
2023-02-19T10:25:37.214Z,4.93
2023-02-19T10:28:06.373Z,4.85
2023-02-19T10:30:35.817Z,5.28
2023-02-19T10:33:13.614Z,5.36
2023-02-19T10:35:55.668Z,5.34
2023-02-19T10:38:38.442Z,5.55
2023-02-19T10:41:07.161Z,5.81
2023-02-19T10:43:41.048Z,5.70
2023-02-19T10:46:18.090Z,5.98
2023-02-19T10:48:55.787Z,6.03
2023-02-19T10:51:32.705Z,5.93
2023-02-19T10:54:08.203Z,5.66
2023-02-19T10:56:35.213Z,5.60
2023-02-19T10:59:25.546Z,5.57
2023-02-19T11:02:09.069Z,5.41
2023-02-19T11:04:38.153Z,5.57
2023-02-19T11:07:10.829Z,5.63
2023-02-19T11:09:39.940Z,5.66
2023-02-19T11:12:10.582Z,5.91
2023-02-19T11:14:37.692Z,6.22
2023-02-19T11:17:05.800Z,6.29
2023-02-19T11:19:41.331Z,6.07
2023-02-19T11:22:29.457Z,6.12
2023-02-19T11:24:59.411Z,6.49
2023-02-19T11:27:26.492Z,6.76
2023-02-19T11:29:56.030Z,6.19
2023-02-19T11:32:30.838Z,6.44
2023-02-19T11:35:23.188Z,6.78
2023-02-19T11:37:59.242Z,6.95
2023-02-19T11:40:39.247Z,6.94
2023-02-19T11:43:27.199Z,6.93
2023-02-19T11:46:05.847Z,6.48
2023-02-19T11:48:54.253Z,6.72
2023-02-19T11:51:35.226Z,6.58
2023-02-19T11:54:32.865Z,6.23
2023-02-19T11:57:11.600Z,6.28
2023-02-19T11:59:43.229Z,6.20
2023-02-19T12:02:31.639Z,5.86
2023-02-19T12:05:19.047Z,5.89
2023-02-19T12:08:04.449Z,5.76
2023-02-19T12:10:46.071Z,5.95
2023-02-19T12:13:35.047Z,6.42
2023-02-19T12:16:23.858Z,6.80
2023-02-19T12:19:34.653Z,6.94
2023-02-19T12:22:31.291Z,7.24
2023-02-19T12:25:20.159Z,7.39
2023-02-19T12:28:05.554Z,7.46
2023-02-19T12:31:00.043Z,7.58
2023-02-19T12:33:44.751Z,7.20
2023-02-19T12:36:36.756Z,6.76
2023-02-19T12:39:44.422Z,6.74
2023-02-19T12:42:40.874Z,6.86
2023-02-19T12:45:27.159Z,6.61
2023-02-19T12:48:12.861Z,6.51
2023-02-19T12:50:41.127Z,6.38
2023-02-19T12:53:29.360Z,6.23
2023-02-19T12:55:59.113Z,6.00
2023-02-19T12:58:38.894Z,5.96
2023-02-19T13:01:17.230Z,6.02
2023-02-19T13:04:33.478Z,6.10
2023-02-19T13:07:07.802Z,5.98
2023-02-19T13:09:52.007Z,5.82
2023-02-19T13:12:31.626Z,6.22
2023-02-19T13:15:05.871Z,6.69
2023-02-19T13:17:47.493Z,6.93
2023-02-19T13:20:43.177Z,6.70
2023-02-19T13:23:49.391Z,6.63
2023-02-19T13:26:44.376Z,6.64
2023-02-19T13:29:53.292Z,6.62
2023-02-19T13:32:20.098Z,6.67
2023-02-19T13:35:17.368Z,6.65
2023-02-19T13:37:48.553Z,6.60
2023-02-19T13:40:35.839Z,6.45
2023-02-19T13:43:30.085Z,6.59
2023-02-19T13:46:00.662Z,6.52
2023-02-19T13:48:38.059Z,6.58
2023-02-19T13:51:17.942Z,6.70
2023-02-19T13:53:51.769Z,6.77
2023-02-19T13:56:37.062Z,6.81
2023-02-19T13:59:24.789Z,6.80
2023-02-19T14:02:10.917Z,6.60
2023-02-19T14:04:48.632Z,6.62
2023-02-19T14:07:15.468Z,6.71
2023-02-19T14:09:46.586Z,6.80
2023-02-19T14:12:17.668Z,6.84
2023-02-19T14:14:54.924Z,6.70
2023-02-19T14:17:32.183Z,6.60
2023-02-19T14:20:02.021Z,6.51
2023-02-19T14:22:49.871Z,6.28
2023-02-19T14:25:31.470Z,6.16
2023-02-19T14:28:09.934Z,6.19
2023-02-19T14:30:55.354Z,6.21
2023-02-19T14:33:50.013Z,6.18
2023-02-19T14:36:19.246Z,6.15
2023-02-19T14:38:54.537Z,6.15
2023-02-19T14:41:25.529Z,6.19
2023-02-19T14:43:56.289Z,6.02
2023-02-19T14:46:37.291Z,5.90
2023-02-19T14:49:27.173Z,5.95
2023-02-19T14:51:59.562Z,5.95
2023-02-19T14:54:43.374Z,5.94
2023-02-19T14:57:17.303Z,5.91
2023-02-19T15:00:05.876Z,6.01
2023-02-19T15:02:32.745Z,6.17
2023-02-19T15:04:59.427Z,6.09
2023-02-19T15:07:32.723Z,6.27
2023-02-19T15:10:04.985Z,6.37
2023-02-19T15:12:46.162Z,6.27
2023-02-19T15:15:23.679Z,6.22
2023-02-19T15:17:51.670Z,6.18
2023-02-19T15:20:22.835Z,6.08
2023-02-19T15:22:50.173Z,6.00
2023-02-19T15:25:20.381Z,6.01
2023-02-19T15:27:47.465Z,5.92
2023-02-19T15:30:30.322Z,5.83
2023-02-19T15:32:59.716Z,5.81
2023-02-19T15:35:29.041Z,5.63
2023-02-19T15:37:57.872Z,5.65
2023-02-19T15:40:31.161Z,5.62
2023-02-19T15:43:00.445Z,5.50
2023-02-19T15:45:38.927Z,5.46
2023-02-19T15:48:15.264Z,5.33
2023-02-19T15:50:47.566Z,5.30
2023-02-19T15:53:29.177Z,5.19
2023-02-19T15:56:12.633Z,5.14
2023-02-19T15:58:42.804Z,5.06
2023-02-19T16:01:20.577Z,5.01
2023-02-19T16:03:48.446Z,5.07
2023-02-19T16:06:17.992Z,5.00
2023-02-19T16:09:02.220Z,4.93
2023-02-19T16:11:30.745Z,4.92
2023-02-19T16:14:23.081Z,4.79
2023-02-19T16:16:54.989Z,4.67
2023-02-19T16:19:24.388Z,4.66
2023-02-19T16:21:55.352Z,4.68
2023-02-19T16:24:37.493Z,4.72
2023-02-19T16:27:05.212Z,4.50
2023-02-19T16:29:32.994Z,4.49
2023-02-19T16:32:14.939Z,4.48
2023-02-19T16:34:50.750Z,4.39
2023-02-19T16:37:33.310Z,4.30
2023-02-19T16:40:09.193Z,4.25
2023-02-19T16:43:04.220Z,4.29
2023-02-19T16:45:33.505Z,4.24
2023-02-19T16:48:00.410Z,4.12
2023-02-19T16:50:27.349Z,4.08
2023-02-19T16:52:58.869Z,3.99
2023-02-19T16:55:28.902Z,3.91
2023-02-19T16:57:55.998Z,3.74
2023-02-19T17:00:28.261Z,3.79
2023-02-19T17:03:01.418Z,3.72
2023-02-19T17:05:32.647Z,3.59
2023-02-19T17:07:59.433Z,3.36
2023-02-19T17:10:27.694Z,3.18
2023-02-19T17:12:56.255Z,3.04
2023-02-19T17:15:23.472Z,2.88
2023-02-19T17:17:55.728Z,2.76
2023-02-19T17:20:27.761Z,2.61
2023-02-19T17:22:55.749Z,2.50
2023-02-19T17:25:24.604Z,2.39
2023-02-19T17:27:51.263Z,2.21
2023-02-19T17:30:28.233Z,2.14
2023-02-19T17:32:55.590Z,1.98
2023-02-19T17:35:22.439Z,1.89
2023-02-19T17:37:49.627Z,1.82
2023-02-19T17:40:32.159Z,1.76
2023-02-19T17:42:59.696Z,1.65
2023-02-19T17:45:26.482Z,1.65
2023-02-19T17:47:56.138Z,1.60
2023-02-19T17:50:25.506Z,1.55
2023-02-19T17:52:54.713Z,1.51
2023-02-19T17:55:21.520Z,1.43
2023-02-19T17:57:49.708Z,1.42
2023-02-19T18:00:22.933Z,1.38
2023-02-19T18:02:49.931Z,1.35
2023-02-19T18:05:17.025Z,1.27
2023-02-19T18:07:44.755Z,1.19
2023-02-19T18:10:12.292Z,1.27
2023-02-19T18:12:40.191Z,1.25
2023-02-19T18:15:08.435Z,1.19
2023-02-19T18:17:35.653Z,1.19
2023-02-19T18:20:04.807Z,1.20
2023-02-19T18:22:32.365Z,1.21
2023-02-19T18:24:59.102Z,1.28
2023-02-19T18:27:25.800Z,1.31
2023-02-19T18:29:55.319Z,1.34
2023-02-19T18:32:26.398Z,1.34
2023-02-19T18:34:59.248Z,1.30
2023-02-19T18:37:27.951Z,1.29
2023-02-19T18:39:54.637Z,1.29
2023-02-19T18:42:22.223Z,1.34
2023-02-19T18:44:50.125Z,1.32
2023-02-19T18:47:17.557Z,1.29
2023-02-19T18:49:48.969Z,1.24
2023-02-19T18:52:16.920Z,1.21
2023-02-19T18:54:47.193Z,1.17
2023-02-19T18:57:14.357Z,1.18
2023-02-19T18:59:42.954Z,1.15
2023-02-19T19:02:11.747Z,1.14
2023-02-19T19:04:39.200Z,1.08
2023-02-19T19:07:07.468Z,1.06
2023-02-19T19:09:34.559Z,1.01
2023-02-19T19:12:01.553Z,1.00
2023-02-19T19:14:28.439Z,1.00
2023-02-19T19:16:55.312Z,0.98
2023-02-19T19:19:22.094Z,0.95
2023-02-19T19:21:55.585Z,0.93
2023-02-19T19:24:24.692Z,0.92
2023-02-19T19:26:55.937Z,0.88
2023-02-19T19:29:23.084Z,0.86
2023-02-19T19:31:53.435Z,0.84
2023-02-19T19:34:20.302Z,0.82
2023-02-19T19:36:46.984Z,0.79
2023-02-19T19:39:13.742Z,0.79
2023-02-19T19:41:45.969Z,0.77
2023-02-19T19:44:16.246Z,0.73
2023-02-19T19:46:45.626Z,0.73
2023-02-19T19:49:16.485Z,0.72
2023-02-19T19:51:49.085Z,0.70
2023-02-19T19:54:16.260Z,0.69
2023-02-19T19:56:52.186Z,0.65
2023-02-19T19:59:19.072Z,0.64
2023-02-19T20:02:01.836Z,0.64
2023-02-19T20:04:29.038Z,0.59
2023-02-19T20:07:02.916Z,0.60
2023-02-19T20:09:32.306Z,0.49
2023-02-19T20:12:05.332Z,0.46
2023-02-19T20:14:41.279Z,0.41
2023-02-19T20:17:09.621Z,0.35
2023-02-19T20:19:36.987Z,0.30
2023-02-19T20:22:03.983Z,0.26
2023-02-19T20:24:31.199Z,0.21
2023-02-19T20:27:02.073Z,0.20
2023-02-19T20:29:30.831Z,0.18
2023-02-19T20:32:03.744Z,0.14
2023-02-19T20:34:31.639Z,0.15
2023-02-19T20:36:58.853Z,0.13
2023-02-19T20:39:29.021Z,0.10
2023-02-19T20:41:56.431Z,0.07
2023-02-19T20:44:23.148Z,0.06
2023-02-19T20:46:53.319Z,0.05
2023-02-19T20:49:22.274Z,0.06
2023-02-19T20:52:00.166Z,0.08
2023-02-19T20:54:29.893Z,0.08
2023-02-19T20:56:59.098Z,0.10
2023-02-19T20:59:38.887Z,0.13
2023-02-19T21:02:08.537Z,0.15
2023-02-19T21:04:38.644Z,0.18
2023-02-19T21:07:08.285Z,0.16
2023-02-19T21:09:34.892Z,0.20
2023-02-19T21:12:01.692Z,0.18
2023-02-19T21:14:31.769Z,0.19
2023-02-19T21:16:58.417Z,0.19
2023-02-19T21:19:25.253Z,0.14
2023-02-19T21:21:51.913Z,0.12
2023-02-19T21:24:18.611Z,0.13
2023-02-19T21:26:45.546Z,0.11
2023-02-19T21:29:19.203Z,0.09
2023-02-19T21:31:48.555Z,0.10
2023-02-19T21:34:18.027Z,0.08
2023-02-19T21:36:45.125Z,0.08
2023-02-19T21:39:13.681Z,0.08
2023-02-19T21:41:46.960Z,0.04
2023-02-19T21:44:14.085Z,0.01
2023-02-19T21:46:41.108Z,0.00
2023-02-19T21:49:10.415Z,-0.01
2023-02-19T21:51:40.694Z,0.00
2023-02-19T21:54:15.087Z,0.04
2023-02-19T21:56:42.622Z,0.08
2023-02-19T21:59:09.536Z,0.12
2023-02-19T22:01:38.903Z,0.18
2023-02-19T22:04:10.896Z,0.25
2023-02-19T22:06:39.321Z,0.28
2023-02-19T22:09:07.412Z,0.31
2023-02-19T22:11:34.528Z,0.30
2023-02-19T22:14:01.285Z,0.33
2023-02-19T22:16:31.371Z,0.33
2023-02-19T22:18:59.478Z,0.35
2023-02-19T22:21:29.193Z,0.41
2023-02-19T22:23:58.805Z,0.44
2023-02-19T22:26:30.458Z,0.46
2023-02-19T22:29:02.809Z,0.45
2023-02-19T22:31:29.563Z,0.43
2023-02-19T22:34:04.728Z,0.45
2023-02-19T22:36:37.452Z,0.43
2023-02-19T22:39:10.321Z,0.40
2023-02-19T22:41:42.282Z,0.34
2023-02-19T22:44:10.232Z,0.30
2023-02-19T22:46:37.061Z,0.28
2023-02-19T22:49:07.588Z,0.30
2023-02-19T22:51:36.256Z,0.38
2023-02-19T22:54:12.054Z,0.42
2023-02-19T22:56:41.607Z,0.44
2023-02-19T22:59:08.231Z,0.44
2023-02-19T23:01:34.838Z,0.46
2023-02-19T23:04:08.093Z,0.43
2023-02-19T23:06:35.891Z,0.47
2023-02-19T23:09:10.548Z,0.49
2023-02-19T23:11:40.207Z,0.50
2023-02-19T23:14:07.725Z,0.54
2023-02-19T23:16:38.289Z,0.55
2023-02-19T23:19:15.283Z,0.51
2023-02-19T23:21:44.401Z,0.50
2023-02-19T23:24:19.722Z,0.47
2023-02-19T23:26:56.472Z,0.49
2023-02-19T23:29:36.616Z,0.46
2023-02-19T23:32:06.644Z,0.43
2023-02-19T23:34:33.358Z,0.40
2023-02-19T23:37:00.322Z,0.34
2023-02-19T23:39:32.865Z,0.27
2023-02-19T23:41:59.505Z,0.21
2023-02-19T23:44:26.701Z,0.23
2023-02-19T23:46:54.241Z,0.17
2023-02-19T23:49:22.046Z,0.14
2023-02-19T23:51:51.840Z,0.11
2023-02-19T23:54:18.601Z,0.11
2023-02-19T23:56:49.494Z,0.06
2023-02-19T23:59:25.985Z,0.07
